createdAt,value
2023-12-05T00:01:59.155Z,8.00
2023-12-05T00:04:25.934Z,8.65
2023-12-05T00:06:52.689Z,9.05
2023-12-05T00:09:19.418Z,8.15
2023-12-05T00:11:46.150Z,8.88
2023-12-05T00:14:12.783Z,9.00
2023-12-05T00:16:39.519Z,8.32
2023-12-05T00:19:06.506Z,8.98
2023-12-05T00:21:33.341Z,8.70
2023-12-05T00:24:00.153Z,7.78
2023-12-05T00:26:26.877Z,9.05
2023-12-05T00:28:53.681Z,8.55
2023-12-05T00:31:20.621Z,8.45
2023-12-05T00:33:48.761Z,8.63
2023-12-05T00:36:15.749Z,7.90
2023-12-05T00:38:42.828Z,8.88
2023-12-05T00:41:10.209Z,9.45
2023-12-05T00:43:38.067Z,8.40
2023-12-05T00:46:05.167Z,9.13
2023-12-05T00:48:31.901Z,9.20
2023-12-05T00:50:58.881Z,8.85
2023-12-05T00:53:25.939Z,9.18
2023-12-05T00:55:53.023Z,8.48
2023-12-05T00:58:20.600Z,8.73
2023-12-05T01:00:47.352Z,9.45
2023-12-05T01:03:14.901Z,9.65
2023-12-05T01:05:42.462Z,9.05
2023-12-05T01:08:09.279Z,8.68
2023-12-05T01:10:36.256Z,9.32
2023-12-05T01:13:03.883Z,8.82
2023-12-05T01:15:30.799Z,8.48
2023-12-05T01:17:57.577Z,8.93
2023-12-05T01:20:24.584Z,9.48
2023-12-05T01:22:51.260Z,9.48
2023-12-05T01:25:18.403Z,9.45
2023-12-05T01:27:46.345Z,9.85
2023-12-05T01:30:13.491Z,9.85
2023-12-05T01:32:40.214Z,9.48
2023-12-05T01:35:07.416Z,9.52
2023-12-05T01:37:34.069Z,9.25
2023-12-05T01:40:01.158Z,9.75
2023-12-05T01:42:27.949Z,9.57
2023-12-05T01:44:54.696Z,9.13
2023-12-05T01:47:22.418Z,9.23
2023-12-05T01:49:49.442Z,9.60
2023-12-05T01:52:17.227Z,9.63
2023-12-05T01:54:44.714Z,10.20
2023-12-05T01:57:11.879Z,10.35
2023-12-05T01:59:38.666Z,9.60
2023-12-05T02:02:05.409Z,9.68
2023-12-05T02:04:33.136Z,10.32
2023-12-05T02:07:00.779Z,9.80
2023-12-05T02:09:27.552Z,9.63
2023-12-05T02:11:54.320Z,10.02
2023-12-05T02:14:21.433Z,9.35
2023-12-05T02:17:13.246Z,10.43
2023-12-05T02:19:53.575Z,10.05
2023-12-05T02:22:57.601Z,9.77
2023-12-05T02:25:24.550Z,9.80
2023-12-05T02:27:52.366Z,9.82
2023-12-05T02:30:19.274Z,10.05
2023-12-05T02:32:46.139Z,9.45
2023-12-05T02:35:14.106Z,10.60
2023-12-05T02:38:08.779Z,11.02
2023-12-05T02:40:47.907Z,10.00
2023-12-05T02:43:26.151Z,10.40
2023-12-05T02:46:08.316Z,10.55
2023-12-05T02:48:37.582Z,10.55
2023-12-05T02:51:04.987Z,9.93
2023-12-05T02:53:31.850Z,10.20
2023-12-05T02:55:59.007Z,10.60
2023-12-05T02:58:25.717Z,9.77
2023-12-05T03:00:52.486Z,10.35
2023-12-05T03:03:19.366Z,10.48
2023-12-05T03:05:46.212Z,10.55
2023-12-05T03:08:13.054Z,11.13
2023-12-05T03:10:40.964Z,10.93
2023-12-05T03:13:07.693Z,11.20
2023-12-05T03:15:34.334Z,9.70
2023-12-05T03:18:01.287Z,10.85
2023-12-05T03:20:28.646Z,11.75
2023-12-05T03:22:55.511Z,11.82
2023-12-05T03:25:22.429Z,11.07
2023-12-05T03:27:49.120Z,12.55
2023-12-05T03:30:15.944Z,10.68
2023-12-05T03:32:42.781Z,11.88
2023-12-05T03:35:09.609Z,11.50
2023-12-05T03:37:36.286Z,11.82
2023-12-05T03:40:03.272Z,11.48
2023-12-05T03:42:30.227Z,12.00
2023-12-05T03:44:56.900Z,11.23
2023-12-05T03:47:23.766Z,12.20
2023-12-05T03:49:50.431Z,11.75
2023-12-05T03:52:17.280Z,12.38
2023-12-05T03:54:43.999Z,11.60
2023-12-05T03:57:10.676Z,11.48
2023-12-05T03:59:37.295Z,11.77
2023-12-05T04:02:04.230Z,12.23
2023-12-05T04:04:31.128Z,11.85
2023-12-05T04:06:57.961Z,12.48
2023-12-05T04:09:24.727Z,11.77
2023-12-05T04:11:51.322Z,12.65
2023-12-05T04:14:18.183Z,12.02
2023-12-05T04:16:44.879Z,13.07
2023-12-05T04:19:11.730Z,11.63
2023-12-05T04:21:38.507Z,11.93
2023-12-05T04:24:07.393Z,12.93
2023-12-05T04:26:34.024Z,12.40
2023-12-05T04:29:00.777Z,12.68
2023-12-05T04:31:30.649Z,12.98
2023-12-05T04:33:57.573Z,13.27
2023-12-05T04:36:25.544Z,13.43
2023-12-05T04:38:52.381Z,13.40
2023-12-05T04:41:19.146Z,13.27
2023-12-05T04:43:46.133Z,13.60
2023-12-05T04:46:12.860Z,13.40
2023-12-05T04:48:39.683Z,13.75
2023-12-05T04:51:06.534Z,13.27
2023-12-05T04:53:33.992Z,13.07
2023-12-05T04:56:00.792Z,14.30
2023-12-05T04:58:28.008Z,13.30
2023-12-05T05:00:56.659Z,13.30
2023-12-05T05:03:25.255Z,13.65
2023-12-05T05:05:52.017Z,15.02
2023-12-05T05:08:18.731Z,14.77
2023-12-05T05:10:45.435Z,13.32
2023-12-05T05:13:12.148Z,14.35
2023-12-05T05:15:38.912Z,14.55
2023-12-05T05:18:05.865Z,13.73
2023-12-05T05:20:32.657Z,15.43
2023-12-05T05:22:59.333Z,14.85
2023-12-05T05:25:26.039Z,15.63
2023-12-05T05:27:52.804Z,14.95
2023-12-05T05:30:19.497Z,15.05
2023-12-05T05:32:46.348Z,15.07
2023-12-05T05:35:13.168Z,15.70
2023-12-05T05:37:39.897Z,16.05
2023-12-05T05:40:08.144Z,14.88
2023-12-05T05:42:35.155Z,15.98
2023-12-05T05:45:02.034Z,14.98
2023-12-05T05:47:29.814Z,15.40
2023-12-05T05:49:58.553Z,15.07
2023-12-05T05:52:25.210Z,16.42
2023-12-05T05:54:52.087Z,16.88
2023-12-05T05:57:19.163Z,15.73
2023-12-05T05:59:45.922Z,15.60
2023-12-05T06:02:13.557Z,16.15
2023-12-05T06:04:44.504Z,15.57
2023-12-05T06:07:11.355Z,17.52
2023-12-05T06:09:38.106Z,15.85
2023-12-05T06:12:06.235Z,16.83
2023-12-05T06:14:32.898Z,18.02
2023-12-05T06:16:59.641Z,18.15
2023-12-05T06:19:26.849Z,16.55
2023-12-05T06:21:54.233Z,17.52
2023-12-05T06:24:21.183Z,16.58
2023-12-05T06:26:47.859Z,18.10
2023-12-05T06:29:14.696Z,16.02
2023-12-05T06:31:41.404Z,17.33
2023-12-05T06:34:08.771Z,17.25
2023-12-05T06:36:35.646Z,16.45
2023-12-05T06:39:02.491Z,17.60
2023-12-05T06:41:29.143Z,18.15
2023-12-05T06:43:56.084Z,19.10
2023-12-05T06:46:23.145Z,17.05
2023-12-05T06:48:50.015Z,17.40
2023-12-05T06:51:20.304Z,16.27
2023-12-05T06:53:50.714Z,18.55
2023-12-05T06:56:19.586Z,16.75
2023-12-05T06:58:46.603Z,17.10
2023-12-05T07:01:13.361Z,17.75
2023-12-05T07:03:47.334Z,18.17
2023-12-05T07:06:17.736Z,18.42
2023-12-05T07:08:44.788Z,17.42
2023-12-05T07:11:11.593Z,17.83
2023-12-05T07:13:38.241Z,17.20
2023-12-05T07:16:05.628Z,18.50
2023-12-05T07:18:32.694Z,18.48
2023-12-05T07:20:59.693Z,18.73
2023-12-05T07:23:26.335Z,17.67
2023-12-05T07:25:57.427Z,19.10
2023-12-05T07:28:24.650Z,19.50
2023-12-05T07:30:53.060Z,18.92
2023-12-05T07:33:20.664Z,18.08
2023-12-05T07:35:47.905Z,17.52
2023-12-05T07:38:14.560Z,18.52
2023-12-05T07:40:41.221Z,19.23
2023-12-05T07:43:08.192Z,19.98
2023-12-05T07:45:35.342Z,19.90
2023-12-05T07:48:02.101Z,20.38
2023-12-05T07:50:28.833Z,20.25
2023-12-05T07:52:56.058Z,19.67
2023-12-05T07:55:22.668Z,19.15
2023-12-05T07:57:50.550Z,19.15
2023-12-05T08:00:18.360Z,18.88
2023-12-05T08:02:45.370Z,19.80
2023-12-05T08:05:12.377Z,19.73
2023-12-05T08:07:39.867Z,18.90
2023-12-05T08:10:07.550Z,19.42
2023-12-05T08:12:35.029Z,22.10
2023-12-05T08:15:02.302Z,22.17
2023-12-05T08:17:28.927Z,21.42
2023-12-05T08:19:56.406Z,21.25
2023-12-05T08:22:23.228Z,21.15
2023-12-05T08:24:53.129Z,20.00
2023-12-05T08:27:20.006Z,19.33
2023-12-05T08:29:46.929Z,21.23
2023-12-05T08:32:13.633Z,20.35
2023-12-05T08:34:40.484Z,19.92
2023-12-05T08:37:07.347Z,19.83
2023-12-05T08:39:34.091Z,21.95
2023-12-05T08:42:00.892Z,20.60
2023-12-05T08:44:28.265Z,21.52
2023-12-05T08:46:55.151Z,20.73
2023-12-05T08:49:22.029Z,21.38
2023-12-05T08:51:48.923Z,21.08
2023-12-05T08:54:16.698Z,19.85
2023-12-05T08:56:43.394Z,19.88
2023-12-05T08:59:10.047Z,20.50
2023-12-05T09:01:36.846Z,19.77
2023-12-05T09:04:04.674Z,20.17
2023-12-05T09:06:31.739Z,21.58
2023-12-05T09:08:59.889Z,21.83
2023-12-05T09:11:27.450Z,20.00
2023-12-05T09:13:54.114Z,20.02
2023-12-05T09:16:21.467Z,21.08
2023-12-05T09:18:48.349Z,21.02
2023-12-05T09:21:15.379Z,21.08
2023-12-05T09:23:41.995Z,20.33
2023-12-05T09:26:08.673Z,20.80
2023-12-05T09:28:35.930Z,21.35
2023-12-05T09:31:02.687Z,21.40
2023-12-05T09:33:29.381Z,21.73
2023-12-05T09:35:56.282Z,20.70
2023-12-05T09:38:23.041Z,21.25
2023-12-05T09:40:52.783Z,21.33
2023-12-05T09:43:26.233Z,22.50
2023-12-05T09:46:05.364Z,20.42
2023-12-05T09:48:39.885Z,21.15
2023-12-05T09:51:09.329Z,20.88
2023-12-05T09:53:36.840Z,21.40
2023-12-05T09:56:03.876Z,22.70
2023-12-05T09:58:30.757Z,22.90
2023-12-05T10:00:58.063Z,21.33
2023-12-05T10:03:25.305Z,22.05
2023-12-05T10:05:53.897Z,21.45
2023-12-05T10:08:22.375Z,21.52
2023-12-05T10:10:49.936Z,21.92
2023-12-05T10:13:18.727Z,22.52
2023-12-05T10:15:45.600Z,21.48
2023-12-05T10:18:12.382Z,21.95
2023-12-05T10:20:39.757Z,21.70
2023-12-05T10:23:06.662Z,21.17
2023-12-05T10:25:33.651Z,22.67
2023-12-05T10:28:05.208Z,21.75
2023-12-05T10:30:38.320Z,22.45
2023-12-05T10:33:17.484Z,21.52
2023-12-05T10:35:45.869Z,23.70
2023-12-05T10:38:21.277Z,21.15
2023-12-05T10:40:58.394Z,22.52
2023-12-05T10:43:27.206Z,22.38
2023-12-05T10:45:55.771Z,20.77
2023-12-05T10:48:26.249Z,22.48
2023-12-05T10:50:53.115Z,21.70
2023-12-05T10:53:20.340Z,22.20
2023-12-05T10:55:47.252Z,22.77
2023-12-05T10:58:15.222Z,22.55
2023-12-05T11:00:42.114Z,21.70
2023-12-05T11:03:09.146Z,21.88
2023-12-05T11:05:36.342Z,22.98
2023-12-05T11:08:05.138Z,22.23
2023-12-05T11:10:32.127Z,20.92
2023-12-05T11:13:03.031Z,21.83
2023-12-05T11:15:38.192Z,22.77
2023-12-05T11:18:19.940Z,21.48
2023-12-05T11:21:04.504Z,21.83
2023-12-05T11:23:37.973Z,23.13
2023-12-05T11:26:44.731Z,22.35
2023-12-05T11:29:38.068Z,21.67
2023-12-05T11:32:26.347Z,20.90
2023-12-05T11:35:18.376Z,22.40
2023-12-05T11:38:06.435Z,23.20
2023-12-05T11:40:33.124Z,23.10
2023-12-05T11:43:10.895Z,23.08
2023-12-05T11:45:44.754Z,22.00
2023-12-05T11:48:14.450Z,23.05
2023-12-05T11:50:42.772Z,22.48
2023-12-05T11:53:10.869Z,22.55
2023-12-05T11:55:41.824Z,22.15
2023-12-05T11:58:33.557Z,21.65
2023-12-05T12:01:11.315Z,22.88
2023-12-05T12:03:49.508Z,22.13
2023-12-05T12:06:26.891Z,22.05
2023-12-05T12:08:59.231Z,23.25
2023-12-05T12:11:25.929Z,21.52
2023-12-05T12:13:52.772Z,23.83
2023-12-05T12:16:20.916Z,21.80
2023-12-05T12:18:53.634Z,22.02
2023-12-05T12:21:29.793Z,22.63
2023-12-05T12:23:58.865Z,22.40
2023-12-05T12:26:25.706Z,23.05
2023-12-05T12:28:52.917Z,22.10
2023-12-05T12:31:29.211Z,23.27
2023-12-05T12:33:58.340Z,22.77
2023-12-05T12:36:26.524Z,22.02
2023-12-05T12:38:55.225Z,21.60
2023-12-05T12:41:22.037Z,22.23
2023-12-05T12:43:48.728Z,20.60
2023-12-05T12:46:15.423Z,22.23
2023-12-05T12:48:43.635Z,20.42
2023-12-05T12:51:11.574Z,21.15
2023-12-05T12:53:38.336Z,21.70
2023-12-05T12:56:07.979Z,22.33
2023-12-05T12:58:37.805Z,22.17
2023-12-05T13:01:05.193Z,20.50
2023-12-05T13:03:33.758Z,20.50
2023-12-05T13:06:01.951Z,21.20
2023-12-05T13:08:29.078Z,22.00
2023-12-05T13:10:56.707Z,19.98
2023-12-05T13:13:23.474Z,21.85
2023-12-05T13:15:50.360Z,21.02
2023-12-05T13:18:17.333Z,21.20
2023-12-05T13:20:52.826Z,22.83
2023-12-05T13:23:20.791Z,22.23
2023-12-05T13:25:47.873Z,21.30
2023-12-05T13:28:14.904Z,22.02
2023-12-05T13:30:43.090Z,20.88
2023-12-05T13:33:12.973Z,23.05
2023-12-05T13:35:40.965Z,21.98
2023-12-05T13:38:09.055Z,22.02
2023-12-05T13:40:35.925Z,21.45
2023-12-05T13:43:02.976Z,21.48
2023-12-05T13:45:29.836Z,22.27
2023-12-05T13:47:58.899Z,21.25
2023-12-05T13:50:26.882Z,21.00
2023-12-05T13:52:53.802Z,19.85
2023-12-05T13:55:20.501Z,20.55
2023-12-05T13:57:47.250Z,20.35
2023-12-05T14:00:16.149Z,20.50
2023-12-05T14:02:42.960Z,20.45
2023-12-05T14:05:09.986Z,21.60
2023-12-05T14:07:36.853Z,21.33
2023-12-05T14:10:04.063Z,20.13
2023-12-05T14:12:30.844Z,20.45
2023-12-05T14:14:57.611Z,19.80
2023-12-05T14:17:24.416Z,20.48
2023-12-05T14:19:52.513Z,20.10
2023-12-05T14:22:19.452Z,20.15
2023-12-05T14:24:46.417Z,20.30
2023-12-05T14:27:13.162Z,19.92
2023-12-05T14:29:39.881Z,21.20
2023-12-05T14:32:07.505Z,20.13
2023-12-05T14:34:34.281Z,20.88
2023-12-05T14:37:01.561Z,19.83
2023-12-05T14:39:28.382Z,20.20
2023-12-05T14:41:55.189Z,19.70
2023-12-05T14:44:22.016Z,20.20
2023-12-05T14:46:48.694Z,19.98
2023-12-05T14:49:17.351Z,21.30
2023-12-05T14:51:44.738Z,20.80
2023-12-05T14:54:11.510Z,20.15
2023-12-05T14:56:39.960Z,20.63
2023-12-05T14:59:06.870Z,20.40
2023-12-05T15:01:33.833Z,19.77
2023-12-05T15:04:01.008Z,21.38
2023-12-05T15:06:27.780Z,19.73
2023-12-05T15:08:56.606Z,21.20
2023-12-05T15:11:26.913Z,20.38
2023-12-05T15:13:53.747Z,20.52
2023-12-05T15:16:21.156Z,22.02
2023-12-05T15:18:48.164Z,20.77
2023-12-05T15:21:15.780Z,21.30
2023-12-05T15:23:52.115Z,21.48
2023-12-05T15:26:22.242Z,21.27
2023-12-05T15:28:48.870Z,20.48
2023-12-05T15:31:16.675Z,20.33
2023-12-05T15:33:44.021Z,20.63
2023-12-05T15:36:14.354Z,21.00
2023-12-05T15:38:45.391Z,20.60
2023-12-05T15:41:14.082Z,19.52
2023-12-05T15:43:42.958Z,21.02
2023-12-05T15:46:09.950Z,21.50
2023-12-05T15:48:44.470Z,19.88
2023-12-05T15:51:13.581Z,22.02
2023-12-05T15:53:41.043Z,20.30
2023-12-05T15:56:08.687Z,21.45
2023-12-05T15:58:35.493Z,22.15
2023-12-05T16:01:02.428Z,21.45
2023-12-05T16:03:31.939Z,20.67
2023-12-05T16:06:00.145Z,21.65
2023-12-05T16:08:27.190Z,22.00
2023-12-05T16:10:54.032Z,20.90
2023-12-05T16:13:21.497Z,20.00
2023-12-05T16:15:48.947Z,20.00
2023-12-05T16:18:16.210Z,20.17
2023-12-05T16:20:43.170Z,21.45
2023-12-05T16:23:09.924Z,20.70
2023-12-05T16:25:36.981Z,20.27
2023-12-05T16:28:04.271Z,21.27
2023-12-05T16:30:31.552Z,21.73
2023-12-05T16:32:58.635Z,19.75
2023-12-05T16:35:25.760Z,20.73
2023-12-05T16:37:52.483Z,21.63
2023-12-05T16:40:19.220Z,21.52
2023-12-05T16:42:46.087Z,21.27
2023-12-05T16:45:12.877Z,21.63
2023-12-05T16:47:40.997Z,21.75
2023-12-05T16:50:08.532Z,21.40
2023-12-05T16:52:35.301Z,20.95
2023-12-05T16:55:02.291Z,22.13
2023-12-05T16:57:30.638Z,21.02
2023-12-05T16:59:57.681Z,21.55
2023-12-05T17:02:24.624Z,20.30
2023-12-05T17:04:51.368Z,22.00
2023-12-05T17:07:18.427Z,20.67
2023-12-05T17:09:45.424Z,22.48
2023-12-05T17:12:12.228Z,21.73
2023-12-05T17:14:41.167Z,22.23
2023-12-05T17:17:08.385Z,22.35
2023-12-05T17:19:35.572Z,20.80
2023-12-05T17:22:02.679Z,22.13
2023-12-05T17:24:29.446Z,21.98
2023-12-05T17:26:56.390Z,22.90
2023-12-05T17:29:23.729Z,21.65
2023-12-05T17:31:51.218Z,23.15
2023-12-05T17:34:20.191Z,22.02
2023-12-05T17:36:47.102Z,21.63
2023-12-05T17:39:14.993Z,21.88
2023-12-05T17:41:43.196Z,21.88
2023-12-05T17:44:10.986Z,23.90
2023-12-05T17:46:41.536Z,22.63
2023-12-05T17:49:08.376Z,21.63
2023-12-05T17:51:35.393Z,25.58
2023-12-05T17:54:02.250Z,23.80
2023-12-05T17:56:29.007Z,21.75
2023-12-05T17:58:57.173Z,22.13
2023-12-05T18:01:24.131Z,24.17
2023-12-05T18:03:51.029Z,22.92
2023-12-05T18:06:17.835Z,22.30
2023-12-05T18:08:46.822Z,24.27
2023-12-05T18:11:13.597Z,23.73
2023-12-05T18:13:40.687Z,22.80
2023-12-05T18:16:08.258Z,20.85
2023-12-05T18:18:35.322Z,23.27
2023-12-05T18:21:03.210Z,22.52
2023-12-05T18:23:29.865Z,23.30
2023-12-05T18:25:59.643Z,23.55
2023-12-05T18:28:26.525Z,22.48
2023-12-05T18:30:54.567Z,24.35
2023-12-05T18:33:21.800Z,24.67
2023-12-05T18:35:49.366Z,23.52
2023-12-05T18:38:16.300Z,21.42
2023-12-05T18:40:43.252Z,23.98
2023-12-05T18:43:13.135Z,23.58
2023-12-05T18:45:59.160Z,24.00
2023-12-05T18:48:26.407Z,24.10
2023-12-05T18:50:53.201Z,25.15
2023-12-05T18:53:20.526Z,24.83
2023-12-05T18:55:47.336Z,24.75
2023-12-05T18:58:17.226Z,25.10
2023-12-05T19:00:44.149Z,25.27
2023-12-05T19:03:14.311Z,26.02
2023-12-05T19:05:44.162Z,24.45
2023-12-05T19:10:53.705Z,24.83
2023-12-05T19:13:20.518Z,25.92
2023-12-05T19:15:50.423Z,26.00
2023-12-05T19:18:17.416Z,25.88
2023-12-05T19:20:44.492Z,27.00
2023-12-05T19:23:11.543Z,28.33
2023-12-05T19:25:40.317Z,26.77
2023-12-05T19:28:09.146Z,27.95
2023-12-05T19:30:41.543Z,27.13
2023-12-05T19:33:13.910Z,26.38
2023-12-05T19:35:42.773Z,26.90
2023-12-05T19:38:10.656Z,28.15
2023-12-05T19:40:37.999Z,29.13
2023-12-05T19:43:06.453Z,27.20
2023-12-05T19:45:33.853Z,28.05
2023-12-05T19:48:00.983Z,28.33
2023-12-05T19:50:31.757Z,29.33
2023-12-05T19:52:59.648Z,29.02
2023-12-05T19:55:26.340Z,28.40
2023-12-05T19:57:53.669Z,26.83
2023-12-05T20:00:23.640Z,26.70
2023-12-05T20:02:50.572Z,26.63
2023-12-05T20:05:19.478Z,26.90
2023-12-05T20:07:46.941Z,28.77
2023-12-05T20:10:14.745Z,27.95
2023-12-05T20:12:41.654Z,26.98
2023-12-05T20:15:11.086Z,27.10
2023-12-05T20:17:38.334Z,27.75
2023-12-05T20:20:06.674Z,27.58
2023-12-05T20:22:35.239Z,27.52
2023-12-05T20:25:07.532Z,27.05
2023-12-05T20:27:36.246Z,30.30
2023-12-05T20:30:08.772Z,27.42
2023-12-05T20:32:40.322Z,26.63
2023-12-05T20:35:10.249Z,27.17
2023-12-05T20:37:39.574Z,27.50
2023-12-05T20:40:07.051Z,25.52
2023-12-05T20:42:33.978Z,26.30
2023-12-05T20:45:01.310Z,25.17
2023-12-05T20:47:28.725Z,26.55
2023-12-05T20:49:55.575Z,23.92
2023-12-05T20:52:24.330Z,26.73
2023-12-05T20:54:51.561Z,26.85
2023-12-05T20:57:18.402Z,26.80
2023-12-05T20:59:45.292Z,27.83
2023-12-05T21:02:12.429Z,25.83
2023-12-05T21:04:39.438Z,25.85
2023-12-05T21:07:06.518Z,27.80
2023-12-05T21:09:33.378Z,25.48
2023-12-05T21:12:00.371Z,25.90
2023-12-05T21:14:27.901Z,26.35
2023-12-05T21:17:02.777Z,25.50
2023-12-05T21:19:29.590Z,24.67
2023-12-05T21:21:56.319Z,25.27
2023-12-05T21:24:23.415Z,26.70
2023-12-05T21:26:50.214Z,25.35
2023-12-05T21:29:16.989Z,26.38
2023-12-05T21:31:43.709Z,24.75
2023-12-05T21:34:10.586Z,25.80
2023-12-05T21:36:37.392Z,25.85
2023-12-05T21:39:05.013Z,25.85
2023-12-05T21:41:31.772Z,25.75
2023-12-05T21:43:58.554Z,25.25
2023-12-05T21:46:30.288Z,26.13
2023-12-05T21:48:57.913Z,25.75
2023-12-05T21:51:24.857Z,25.88
2023-12-05T21:53:52.603Z,25.13
2023-12-05T21:56:19.531Z,26.38
2023-12-05T21:58:46.314Z,24.42
2023-12-05T22:01:15.447Z,26.65
2023-12-05T22:03:43.402Z,26.33
2023-12-05T22:06:10.989Z,26.65
2023-12-05T22:08:38.148Z,26.67
2023-12-05T22:11:05.660Z,26.10
2023-12-05T22:13:33.621Z,27.58
2023-12-05T22:16:02.113Z,26.52
2023-12-05T22:18:29.768Z,27.25
2023-12-05T22:20:57.530Z,26.13
2023-12-05T22:23:25.799Z,28.02
2023-12-05T22:25:53.523Z,26.85
2023-12-05T22:28:20.268Z,26.45
2023-12-05T22:30:47.107Z,26.13
2023-12-05T22:33:14.349Z,25.88
2023-12-05T22:35:43.148Z,27.15
2023-12-05T22:38:12.079Z,27.55
2023-12-05T22:40:39.025Z,28.20
2023-12-05T22:43:05.903Z,26.95
2023-12-05T22:45:33.068Z,28.35
2023-12-05T22:47:59.939Z,27.30
2023-12-05T22:50:26.738Z,27.38
2023-12-05T22:52:54.211Z,26.98
2023-12-05T22:55:21.584Z,27.30
2023-12-05T22:57:50.493Z,27.83
2023-12-05T23:00:26.823Z,27.35
2023-12-05T23:02:57.392Z,27.38
2023-12-05T23:05:24.830Z,27.15
2023-12-05T23:07:52.287Z,28.67
2023-12-05T23:10:19.579Z,27.23
2023-12-05T23:12:46.649Z,26.63
2023-12-05T23:15:14.393Z,27.35
2023-12-05T23:17:42.102Z,27.90
2023-12-05T23:20:11.283Z,27.38
2023-12-05T23:22:38.442Z,27.48
2023-12-05T23:25:06.253Z,27.75
2023-12-05T23:27:33.492Z,28.55
2023-12-05T23:30:00.369Z,28.50
2023-12-05T23:32:27.363Z,28.15
2023-12-05T23:34:54.296Z,27.65
2023-12-05T23:37:25.187Z,27.20
2023-12-05T23:39:52.358Z,26.67
2023-12-05T23:42:19.297Z,27.80
2023-12-05T23:44:46.549Z,27.40
2023-12-05T23:47:13.362Z,28.60
2023-12-05T23:49:40.200Z,27.75
2023-12-05T23:52:07.215Z,26.42
2023-12-05T23:54:35.253Z,26.25
2023-12-05T23:57:02.491Z,29.05
2023-12-05T23:59:29.623Z,27.35
